Time,TemperatureF,DewpointF,PressureIn,WindDirection,WindDirectionDegrees,WindSpeedMPH,WindSpeedGustMPH,Humidity,HourlyPrecipIn,Conditions,Clouds,dailyrainin,SoftwareType,DateUTC
2013-05-19 00:14:00,56.6,51.0,30.08,SSE,157,0.0,6.0,81,0.00,,,0.00,weatherlink.com 1.10,2013-05-19 04:14:00,
2013-05-19 00:29:00,56.7,51.0,30.08,SE,146,3.0,7.0,81,0.00,,,0.00,weatherlink.com 1.10,2013-05-19 04:29:00,
2013-05-19 00:44:00,56.7,51.0,30.08,South,174,4.0,5.0,81,0.00,,,0.00,weatherlink.com 1.10,2013-05-19 04:44:00,
2013-05-19 00:59:00,56.9,51.0,30.08,East,101,1.0,7.0,81,0.00,,,0.00,weatherlink.com 1.10,2013-05-19 04:59:00,
2013-05-19 01:14:00,57.0,51.0,30.07,SSW,194,1.0,6.0,81,0.00,,,0.00,weatherlink.com 1.10,2013-05-19 05:14:00,
2013-05-19 01:29:00,56.9,51.0,30.07,East,101,2.0,7.0,81,0.00,,,0.00,weatherlink.com 1.10,2013-05-19 05:29:00,
2013-05-19 01:44:00,57.0,51.0,30.06,ESE,122,5.0,8.0,81,0.00,,,0.00,weatherlink.com 1.10,2013-05-19 05:44:00,
2013-05-19 01:59:00,56.9,51.0,30.06,SW,229,1.0,7.0,81,0.00,,,0.00,weatherlink.com 1.10,2013-05-19 05:59:00,
2013-05-19 02:14:00,56.7,51.0,30.07,SSW,197,1.0,8.0,82,0.00,,,0.00,weatherlink.com 1.10,2013-05-19 06:14:00,
2013-05-19 02:29:00,56.5,51.0,30.07,SW,226,0.0,6.0,82,0.00,,,0.00,weatherlink.com 1.10,2013-05-19 06:29:00,
2013-05-19 02:44:00,56.2,51.0,30.06,SSW,197,0.0,5.0,83,0.00,,,0.00,weatherlink.com 1.10,2013-05-19 06:44:00,
2013-05-19 02:59:00,56.0,51.0,30.06,SE,135,1.0,2.0,83,0.00,,,0.00,weatherlink.com 1.10,2013-05-19 06:59:00,
2013-05-19 03:14:00,56.0,51.0,30.05,SSW,194,0.0,5.0,83,0.00,,,0.00,weatherlink.com 1.10,2013-05-19 07:14:00,
2013-05-19 03:29:00,56.0,51.0,30.05,SW,221,0.0,8.0,83,0.00,,,0.00,weatherlink.com 1.10,2013-05-19 07:29:00,
2013-05-19 03:44:00,56.1,51.0,30.05,SSW,213,1.0,4.0,83,0.00,,,0.00,weatherlink.com 1.10,2013-05-19 07:44:00,
2013-05-19 03:59:00,56.0,51.0,30.05,South,187,1.0,6.0,83,0.00,,,0.00,weatherlink.com 1.10,2013-05-19 07:59:00,
2013-05-19 04:14:00,56.2,51.0,30.05,SW,232,0.0,8.0,83,0.00,,,0.00,weatherlink.com 1.10,2013-05-19 08:14:00,
2013-05-19 04:29:00,56.0,51.0,30.05,SSE,165,0.0,8.0,83,0.00,,,0.00,weatherlink.com 1.10,2013-05-19 08:29:00,
2013-05-19 04:44:00,55.9,51.0,30.05,South,171,3.0,5.0,84,0.00,,,0.00,weatherlink.com 1.10,2013-05-19 08:44:00,
2013-05-19 04:59:00,56.0,51.0,30.05,ESE,121,0.0,8.0,84,0.00,,,0.00,weatherlink.com 1.10,2013-05-19 08:59:00,
2013-05-19 05:14:00,56.4,52.0,30.05,South,175,2.0,9.0,84,0.00,,,0.00,weatherlink.com 1.10,2013-05-19 09:14:00,
2013-05-19 05:29:00,56.8,52.0,30.05,ESE,117,1.0,9.0,84,0.00,,,0.00,weatherlink.com 1.10,2013-05-19 09:29:00,
2013-05-19 05:44:00,56.9,52.0,30.06,ENE,75,0.0,6.0,84,0.00,,,0.00,weatherlink.com 1.10,2013-05-19 09:44:00,
2013-05-19 05:59:00,57.1,52.0,30.06,SSW,207,1.0,6.0,84,0.00,,,0.00,weatherlink.com 1.10,2013-05-19 09:59:00,
2013-05-19 06:14:00,57.3,53.0,30.06,SE,136,0.0,6.0,84,0.00,,,0.00,weatherlink.com 1.10,2013-05-19 10:14:00,
2013-05-19 06:29:00,57.3,53.0,30.06,West,266,1.0,6.0,85,0.00,,,0.00,weatherlink.com 1.10,2013-05-19 10:29:00,
2013-05-19 06:44:00,57.3,53.0,30.06,South,188,0.0,8.0,86,0.00,,,0.00,weatherlink.com 1.10,2013-05-19 10:44:00,
2013-05-19 06:59:00,57.3,53.0,30.06,South,175,0.0,7.0,86,0.00,,,0.00,weatherlink.com 1.10,2013-05-19 10:59:00,
2013-05-19 07:14:00,57.5,53.0,30.06,SW,221,1.0,6.0,86,0.00,,,0.00,weatherlink.com 1.10,2013-05-19 11:14:00,
2013-05-19 07:30:00,57.8,54.0,30.06,SSW,209,1.0,9.0,87,0.00,,,0.00,weatherlink.com 1.10,2013-05-19 11:30:00,
2013-05-19 07:45:00,58.1,54.0,30.07,SSE,162,0.0,4.0,87,0.00,,,0.00,weatherlink.com 1.10,2013-05-19 11:45:00,
2013-05-19 08:00:00,58.4,54.0,30.07,South,188,1.0,7.0,86,0.00,,,0.00,weatherlink.com 1.10,2013-05-19 12:00:00,
2013-05-19 08:15:00,58.9,55.0,30.07,SSW,208,0.0,9.0,86,0.00,,,0.00,weatherlink.com 1.10,2013-05-19 12:15:00,
2013-05-19 08:30:00,59.0,55.0,30.07,SW,220,1.0,6.0,86,0.00,,,0.00,weatherlink.com 1.10,2013-05-19 12:30:00,
2013-05-19 08:45:00,59.2,55.0,30.08,SW,232,2.0,11.0,86,0.00,,,0.00,weatherlink.com 1.10,2013-05-19 12:45:00,
2013-05-19 09:00:00,59.1,55.0,30.08,SSE,148,1.0,6.0,86,0.00,,,0.00,weatherlink.com 1.10,2013-05-19 13:00:00,
2013-05-19 09:15:00,59.2,55.0,30.08,SSW,205,5.0,5.0,87,0.00,,,0.00,weatherlink.com 1.10,2013-05-19 13:15:00,
2013-05-19 09:30:00,59.5,55.0,30.07,ESE,121,1.0,6.0,86,0.00,,,0.00,weatherlink.com 1.10,2013-05-19 13:30:00,
2013-05-19 09:45:00,60.0,56.0,30.07,ESE,121,1.0,6.0,86,0.00,,,0.00,weatherlink.com 1.10,2013-05-19 13:45:00,
2013-05-19 10:00:00,61.2,56.0,30.07,SSW,208,0.0,9.0,84,0.00,,,0.00,weatherlink.com 1.10,2013-05-19 14:00:00,
2013-05-19 10:15:00,61.8,56.0,30.07,SSW,199,0.0,11.0,82,0.00,,,0.00,weatherlink.com 1.10,2013-05-19 14:15:00,
2013-05-19 10:30:00,61.7,56.0,30.06,SSW,205,1.0,8.0,82,0.00,,,0.00,weatherlink.com 1.10,2013-05-19 14:30:00,
2013-05-19 10:45:00,61.6,56.0,30.06,ESE,111,1.0,10.0,82,0.00,,,0.00,weatherlink.com 1.10,2013-05-19 14:45:00,
2013-05-19 11:00:00,62.6,57.0,30.05,SSW,213,1.0,9.0,82,0.00,,,0.00,weatherlink.com 1.10,2013-05-19 15:00:00,
2013-05-19 11:15:00,63.6,57.0,30.05,SE,136,4.0,7.0,79,0.00,,,0.00,weatherlink.com 1.10,2013-05-19 15:15:00,
2013-05-19 11:30:00,63.1,57.0,30.04,SSW,192,1.0,9.0,79,0.00,,,0.00,weatherlink.com 1.10,2013-05-19 15:30:00,
2013-05-19 11:45:00,63.5,57.0,30.04,WSW,249,2.0,6.0,80,0.00,,,0.00,weatherlink.com 1.10,2013-05-19 15:45:00,
2013-05-19 12:00:00,63.7,57.0,30.04,SE,146,4.0,7.0,80,0.00,,,0.00,weatherlink.com 1.10,2013-05-19 16:00:00,
2013-05-19 12:15:00,64.1,57.0,30.03,SE,136,0.0,12.0,79,0.00,,,0.00,weatherlink.com 1.10,2013-05-19 16:15:00,
2013-05-19 12:30:00,64.1,57.0,30.03,SE,125,0.0,6.0,79,0.00,,,0.00,weatherlink.com 1.10,2013-05-19 16:30:00,
2013-05-19 12:45:00,64.5,58.0,30.03,West,261,3.0,8.0,80,0.00,,,0.00,weatherlink.com 1.10,2013-05-19 16:45:00,
2013-05-19 13:00:00,65.7,58.0,30.03,SE,132,1.0,9.0,77,0.00,,,0.00,weatherlink.com 1.10,2013-05-19 17:00:00,
2013-05-19 13:15:00,65.9,58.0,30.02,South,182,5.0,8.0,76,0.00,,,0.00,weatherlink.com 1.10,2013-05-19 17:15:00,
2013-05-19 13:30:00,65.8,58.0,30.02,West,270,0.0,10.0,76,0.00,,,0.00,weatherlink.com 1.10,2013-05-19 17:30:00,
2013-05-19 13:45:00,66.0,58.0,30.01,SSE,150,0.0,10.0,76,0.00,,,0.00,weatherlink.com 1.10,2013-05-19 17:45:00,
2013-05-19 14:00:00,65.9,58.0,30.01,SSW,213,4.0,10.0,76,0.00,,,0.00,weatherlink.com 1.10,2013-05-19 18:00:00,
2013-05-19 14:15:00,66.1,58.0,30.00,SW,216,1.0,13.0,75,0.00,,,0.00,weatherlink.com 1.10,2013-05-19 18:15:00,
2013-05-19 14:30:00,68.1,60.0,29.99,NE,40,2.0,9.0,75,0.00,,,0.00,weatherlink.com 1.10,2013-05-19 18:30:00,
2013-05-19 14:45:00,70.3,60.0,29.99,East,92,3.0,9.0,69,0.00,,,0.00,weatherlink.com 1.10,2013-05-19 18:45:00,
2013-05-19 15:00:00,68.8,59.0,29.99,SSE,165,1.0,9.0,70,0.00,,,0.00,weatherlink.com 1.10,2013-05-19 19:00:00,
2013-05-19 15:15:00,68.5,59.0,29.98,SW,235,6.0,8.0,71,0.00,,,0.00,weatherlink.com 1.10,2013-05-19 19:15:00,
2013-05-19 15:30:00,69.2,59.0,29.98,WSW,239,0.0,11.0,69,0.00,,,0.00,weatherlink.com 1.10,2013-05-19 19:30:00,
2013-05-19 15:45:00,69.1,59.0,29.98,South,181,2.0,9.0,71,0.00,,,0.00,weatherlink.com 1.10,2013-05-19 19:45:00,
2013-05-19 16:00:00,69.2,59.0,29.98,WNW,286,2.0,12.0,70,0.00,,,0.00,weatherlink.com 1.10,2013-05-19 20:00:00,
2013-05-19 16:15:00,69.7,59.0,29.97,SSE,157,4.0,12.0,69,0.00,,,0.00,weatherlink.com 1.10,2013-05-19 20:15:00,
2013-05-19 16:31:00,69.8,59.0,29.97,SSW,193,5.0,11.0,69,0.00,,,0.00,weatherlink.com 1.10,2013-05-19 20:31:00,
2013-05-19 16:46:00,69.4,59.0,29.98,SSW,197,1.0,9.0,70,0.00,,,0.00,weatherlink.com 1.10,2013-05-19 20:46:00,
2013-05-19 17:01:00,69.2,59.0,29.98,SW,227,2.0,10.0,70,0.00,,,0.00,weatherlink.com 1.10,2013-05-19 21:01:00,
2013-05-19 17:16:00,69.0,59.0,29.98,SW,214,3.0,8.0,71,0.00,,,0.00,weatherlink.com 1.10,2013-05-19 21:16:00,
2013-05-19 17:31:00,68.5,59.0,29.98,SW,218,4.0,6.0,72,0.00,,,0.00,weatherlink.com 1.10,2013-05-19 21:31:00,
2013-05-19 17:46:00,68.1,59.0,29.97,East,88,2.0,12.0,73,0.00,,,0.00,weatherlink.com 1.10,2013-05-19 21:46:00,
2013-05-19 18:01:00,67.6,59.0,29.97,SW,224,2.0,12.0,74,0.00,,,0.00,weatherlink.com 1.10,2013-05-19 22:01:00,
2013-05-19 18:16:00,67.0,58.0,29.96,SW,218,3.0,8.0,74,0.00,,,0.00,weatherlink.com 1.10,2013-05-19 22:16:00,
2013-05-19 18:31:00,66.1,58.0,29.96,ESE,118,0.0,14.0,76,0.00,,,0.00,weatherlink.com 1.10,2013-05-19 22:31:00,
2013-05-19 18:46:00,65.8,58.0,29.96,South,175,0.0,7.0,77,0.00,,,0.00,weatherlink.com 1.10,2013-05-19 22:46:00,
2013-05-19 19:01:00,65.2,58.0,29.96,South,175,1.0,10.0,77,0.00,,,0.00,weatherlink.com 1.10,2013-05-19 23:01:00,
2013-05-19 19:16:00,64.9,58.0,29.97,SSW,210,1.0,7.0,78,0.00,,,0.00,weatherlink.com 1.10,2013-05-19 23:16:00,
2013-05-19 19:31:00,64.6,58.0,29.97,SSW,212,2.0,6.0,79,0.00,,,0.00,weatherlink.com 1.10,2013-05-19 23:31:00,
2013-05-19 19:46:00,64.2,58.0,29.97,SW,229,2.0,8.0,79,0.00,,,0.00,weatherlink.com 1.10,2013-05-19 23:46:00,
2013-05-19 20:01:00,63.8,58.0,29.97,SSW,200,1.0,7.0,80,0.00,,,0.00,weatherlink.com 1.10,2013-05-20 00:01:00,
2013-05-19 20:16:00,63.5,58.0,29.97,SW,215,5.0,8.0,81,0.00,,,0.00,weatherlink.com 1.10,2013-05-20 00:16:00,
2013-05-19 20:31:00,63.2,57.0,29.96,SSE,161,1.0,5.0,81,0.00,,,0.00,weatherlink.com 1.10,2013-05-20 00:31:00,
2013-05-19 20:46:00,62.9,57.0,29.96,South,187,0.0,8.0,82,0.00,,,0.00,weatherlink.com 1.10,2013-05-20 00:46:00,
2013-05-19 21:01:00,62.7,58.0,29.97,SSE,155,1.0,7.0,83,0.00,,,0.00,weatherlink.com 1.10,2013-05-20 01:01:00,
2013-05-19 21:16:00,62.5,57.0,29.97,SSW,197,0.0,7.0,83,0.00,,,0.00,weatherlink.com 1.10,2013-05-20 01:16:00,
2013-05-19 21:31:00,62.4,57.0,29.97,SSW,200,1.0,11.0,83,0.00,,,0.00,weatherlink.com 1.10,2013-05-20 01:31:00,
2013-05-19 21:46:00,62.3,57.0,29.97,SSW,211,3.0,6.0,84,0.00,,,0.00,weatherlink.com 1.10,2013-05-20 01:46:00,
2013-05-19 22:01:00,62.2,57.0,29.98,South,182,4.0,7.0,84,0.00,,,0.00,weatherlink.com 1.10,2013-05-20 02:01:00,
2013-05-19 22:16:00,62.1,58.0,29.97,SSW,209,0.0,6.0,85,0.00,,,0.00,weatherlink.com 1.10,2013-05-20 02:16:00,
2013-05-19 22:31:00,62.0,58.0,29.98,SSW,192,3.0,8.0,85,0.00,,,0.00,weatherlink.com 1.10,2013-05-20 02:31:00,
2013-05-19 22:46:00,61.8,58.0,29.97,East,80,7.0,9.0,86,0.00,,,0.00,weatherlink.com 1.10,2013-05-20 02:46:00,
2013-05-19 23:01:00,61.7,58.0,29.97,East,101,2.0,8.0,86,0.00,,,0.00,weatherlink.com 1.10,2013-05-20 03:01:00,
2013-05-19 23:16:00,61.6,57.0,29.97,SSE,155,0.0,7.0,86,0.00,,,0.00,weatherlink.com 1.10,2013-05-20 03:16:00,
2013-05-19 23:31:00,61.5,58.0,29.97,SSW,213,0.0,6.0,87,0.00,,,0.00,weatherlink.com 1.10,2013-05-20 03:31:00,
2013-05-19 23:46:00,61.4,58.0,29.97,SSW,204,2.0,7.0,87,0.00,,,0.00,weatherlink.com 1.10,2013-05-20 03:46:00,